createdAt,value
2023-02-23T00:00:45.718Z,95444.72
2023-02-23T00:03:31.724Z,95448.38
2023-02-23T00:06:18.853Z,95438.25
2023-02-23T00:09:24.444Z,95446.44
2023-02-23T00:12:10.615Z,95449.63
2023-02-23T00:14:56.405Z,95448.16
2023-02-23T00:17:42.366Z,95454.97
2023-02-23T00:20:28.219Z,95458.81
2023-02-23T00:23:15.161Z,95447.69
2023-02-23T00:26:05.213Z,95457.50
2023-02-23T00:28:53.685Z,95466.69
2023-02-23T00:31:40.808Z,95463.38
2023-02-23T00:34:26.611Z,95464.56
2023-02-23T00:37:12.566Z,95461.41
2023-02-23T00:39:58.445Z,95467.94
2023-02-23T00:42:47.911Z,95460.28
2023-02-23T00:45:34.039Z,95449.66
2023-02-23T00:48:19.822Z,95461.00
2023-02-23T00:51:06.000Z,95456.19
2023-02-23T00:53:55.160Z,95443.22
2023-02-23T00:56:41.803Z,95444.41
2023-02-23T00:59:29.679Z,95455.22
2023-02-23T01:02:16.024Z,95454.69
2023-02-23T01:05:02.163Z,95445.22
2023-02-23T01:07:49.152Z,95446.75
2023-02-23T01:10:42.921Z,95442.19
2023-02-23T01:13:30.754Z,95441.16
2023-02-23T01:16:18.318Z,95461.28
2023-02-23T01:19:05.666Z,95454.47
2023-02-23T01:21:51.896Z,95452.34
2023-02-23T01:24:38.775Z,95445.88
2023-02-23T01:27:25.869Z,95455.03
2023-02-23T01:30:14.929Z,95444.44
2023-02-23T01:33:02.964Z,95459.72
2023-02-23T01:36:00.143Z,95418.88
2023-02-23T01:38:45.773Z,95444.78
2023-02-23T01:41:33.185Z,95444.66
2023-02-23T01:44:19.082Z,95454.78
2023-02-23T01:47:05.039Z,95447.00
2023-02-23T01:49:51.083Z,95455.44
2023-02-23T01:52:37.727Z,95445.00
2023-02-23T01:55:24.705Z,95451.31
2023-02-23T01:58:15.597Z,95438.72
2023-02-23T02:01:02.998Z,95433.72
2023-02-23T02:03:53.941Z,95415.47
2023-02-23T02:06:40.226Z,95437.06
2023-02-23T02:09:28.552Z,95437.41
2023-02-23T02:12:15.073Z,95431.44
2023-02-23T02:15:05.038Z,95433.91
2023-02-23T02:17:59.101Z,95437.91
2023-02-23T02:20:58.621Z,95419.81
2023-02-23T02:24:15.298Z,95432.94
2023-02-23T02:27:21.517Z,95437.44
2023-02-23T02:30:43.691Z,95445.25
2023-02-23T02:33:34.637Z,95445.75
2023-02-23T02:36:44.694Z,95447.25
2023-02-23T02:39:54.112Z,95452.06
2023-02-23T02:42:51.315Z,95443.59
2023-02-23T02:45:50.362Z,95448.44
2023-02-23T02:48:50.406Z,95447.44
2023-02-23T02:51:45.191Z,95449.59
2023-02-23T02:55:00.593Z,95451.09
2023-02-23T02:57:47.107Z,95444.09
2023-02-23T03:01:00.821Z,95443.75
2023-02-23T03:04:05.995Z,95451.09
2023-02-23T03:07:24.987Z,95454.56
2023-02-23T03:10:52.630Z,95465.38
2023-02-23T03:14:25.868Z,95460.56
2023-02-23T03:17:50.748Z,95444.47
2023-02-23T03:21:24.060Z,95457.75
2023-02-23T03:24:38.996Z,95452.75
2023-02-23T03:28:08.396Z,95461.72
2023-02-23T03:31:35.349Z,95460.41
2023-02-23T03:34:47.788Z,95450.09
2023-02-23T03:38:07.049Z,95448.44
2023-02-23T03:41:13.076Z,95448.09
2023-02-23T03:44:22.874Z,95449.91
2023-02-23T03:47:29.574Z,95450.06
2023-02-23T03:50:45.967Z,95458.56
2023-02-23T03:54:40.221Z,95458.03
2023-02-23T03:57:46.901Z,95462.22
2023-02-23T04:00:54.887Z,95462.53
2023-02-23T04:04:01.140Z,95455.88
2023-02-23T04:07:06.170Z,95455.41
2023-02-23T04:10:10.765Z,95438.44
2023-02-23T04:13:17.425Z,95433.97
2023-02-23T04:16:06.009Z,95449.56
2023-02-23T04:18:51.861Z,95439.25
2023-02-23T04:21:38.158Z,95445.56
2023-02-23T04:24:23.855Z,95455.38
2023-02-23T04:27:09.718Z,95456.38
2023-02-23T04:29:55.537Z,95439.91
2023-02-23T04:32:41.322Z,95452.38
2023-02-23T04:35:29.952Z,95445.72
2023-02-23T04:38:16.168Z,95445.72
2023-02-23T04:41:02.112Z,95438.75
2023-02-23T04:43:48.006Z,95450.03
2023-02-23T04:46:33.744Z,95437.75
2023-02-23T04:49:19.571Z,95428.41
2023-02-23T04:52:05.707Z,95435.75
2023-02-23T04:54:51.735Z,95441.06
2023-02-23T04:57:37.669Z,95442.38
2023-02-23T05:00:23.732Z,95448.53
2023-02-23T05:03:10.837Z,95449.34
2023-02-23T05:05:56.919Z,95449.84
2023-02-23T05:08:43.080Z,95441.34
2023-02-23T05:11:29.988Z,95451.00
2023-02-23T05:14:15.992Z,95451.50
2023-02-23T05:17:02.957Z,95442.34
2023-02-23T05:19:48.922Z,95429.75
2023-02-23T05:22:34.858Z,95427.41
2023-02-23T05:25:20.807Z,95417.13
2023-02-23T05:28:06.682Z,95447.16
2023-02-23T05:30:52.699Z,95450.50
2023-02-23T05:33:45.857Z,95441.00
2023-02-23T05:36:31.856Z,95444.66
2023-02-23T05:39:17.604Z,95457.94
2023-02-23T05:42:03.640Z,95453.63
2023-02-23T05:44:49.358Z,95452.94
2023-02-23T05:47:38.836Z,95462.44
2023-02-23T05:50:25.985Z,95450.13
2023-02-23T05:53:11.954Z,95462.59
2023-02-23T05:55:58.157Z,95451.97
2023-02-23T05:58:44.572Z,95454.59
2023-02-23T06:01:31.012Z,95464.44
2023-02-23T06:04:17.456Z,95456.25
2023-02-23T06:07:03.921Z,95466.09
2023-02-23T06:09:50.735Z,95472.06
2023-02-23T06:12:36.603Z,95464.44
2023-02-23T06:15:22.576Z,95472.88
2023-02-23T06:18:09.151Z,95471.06
2023-02-23T06:20:55.650Z,95492.16
2023-02-23T06:23:41.803Z,95485.84
2023-02-23T06:26:27.785Z,95493.16
2023-02-23T06:29:14.754Z,95487.84
2023-02-23T06:32:01.077Z,95481.06
2023-02-23T06:34:47.378Z,95488.41
2023-02-23T06:37:34.277Z,95496.03
2023-02-23T06:40:20.976Z,95505.03
2023-02-23T06:43:06.782Z,95497.72
2023-02-23T06:45:52.657Z,95501.41
2023-02-23T06:48:38.482Z,95508.41
2023-02-23T06:51:24.464Z,95492.59
2023-02-23T06:54:10.381Z,95492.28
2023-02-23T06:56:56.775Z,95507.91
2023-02-23T06:59:42.782Z,95510.59
2023-02-23T07:02:28.587Z,95504.78
2023-02-23T07:05:14.570Z,95520.56
2023-02-23T07:08:00.503Z,95502.78
2023-02-23T07:10:46.645Z,95508.59
2023-02-23T07:13:32.867Z,95503.09
2023-02-23T07:16:18.734Z,95495.59
2023-02-23T07:19:04.776Z,95480.28
2023-02-23T07:21:50.903Z,95494.88
2023-02-23T07:24:36.663Z,95496.06
2023-02-23T07:27:23.040Z,95491.69
2023-02-23T07:30:09.875Z,95496.31
2023-02-23T07:32:55.771Z,95492.59
2023-02-23T07:35:43.132Z,95488.19
2023-02-23T07:38:29.160Z,95492.53
2023-02-23T07:41:15.115Z,95486.97
2023-02-23T07:44:01.080Z,95485.44
2023-02-23T07:46:46.969Z,95471.97
2023-02-23T07:49:33.171Z,95482.88
2023-02-23T07:52:19.265Z,95484.47
2023-02-23T07:55:05.871Z,95481.75
2023-02-23T07:57:51.899Z,95484.19
2023-02-23T08:00:40.094Z,95481.47
2023-02-23T08:03:26.486Z,95482.59
2023-02-23T08:06:12.514Z,95488.34
2023-02-23T08:09:01.974Z,95491.31
2023-02-23T08:11:47.882Z,95483.94
2023-02-23T08:14:33.716Z,95475.28
2023-02-23T08:17:19.912Z,95495.31
2023-02-23T08:20:07.096Z,95490.25
2023-02-23T08:22:57.149Z,95490.81
2023-02-23T08:25:42.824Z,95488.97
2023-02-23T08:28:29.226Z,95484.47
2023-02-23T08:31:16.422Z,95491.66
2023-02-23T08:34:02.770Z,95487.00
2023-02-23T08:36:49.521Z,95478.13
2023-02-23T08:39:35.360Z,95491.50
2023-02-23T08:42:21.513Z,95501.06
2023-02-23T08:45:08.712Z,95478.44
2023-02-23T08:47:55.804Z,95490.78
2023-02-23T08:50:41.697Z,95489.38
2023-02-23T08:53:29.781Z,95495.50
2023-02-23T08:56:15.661Z,95485.25
2023-02-23T08:59:01.614Z,95481.75
2023-02-23T09:01:47.555Z,95495.09
2023-02-23T09:04:35.232Z,95489.19
2023-02-23T09:07:23.248Z,95488.81
2023-02-23T09:10:11.119Z,95476.09
2023-02-23T09:12:56.827Z,95496.19
2023-02-23T09:15:43.616Z,95501.66
2023-02-23T09:18:30.753Z,95483.97
2023-02-23T09:21:21.103Z,95480.59
2023-02-23T09:24:07.400Z,95486.72
2023-02-23T09:26:53.826Z,95490.56
2023-02-23T09:29:43.910Z,95490.63
2023-02-23T09:32:30.184Z,95491.31
2023-02-23T09:35:17.989Z,95490.38
2023-02-23T09:38:05.707Z,95470.78
2023-02-23T09:40:55.412Z,95489.63
2023-02-23T09:43:45.346Z,95474.38
2023-02-23T10:21:21.111Z,95449.91
2023-02-23T10:24:30.284Z,95455.72
2023-02-23T10:27:18.887Z,95451.03
2023-02-23T10:30:14.800Z,95428.09
2023-02-23T10:33:03.561Z,95438.44
2023-02-23T10:35:54.024Z,95433.75
2023-02-23T10:38:46.987Z,95424.44
2023-02-23T10:41:34.547Z,95422.16
2023-02-23T10:44:24.356Z,95419.69
2023-02-23T10:47:31.556Z,95418.47
2023-02-23T10:50:18.156Z,95407.91
2023-02-23T10:53:17.539Z,95402.94
2023-02-23T10:56:13.905Z,95402.09
2023-02-23T10:59:00.242Z,95395.19
2023-02-23T11:02:01.007Z,95383.41
2023-02-23T11:04:53.956Z,95387.72
2023-02-23T11:07:40.214Z,95387.88
2023-02-23T11:10:28.155Z,95376.03
2023-02-23T11:13:26.434Z,95382.03
2023-02-23T11:16:17.731Z,95370.09
2023-02-23T11:19:05.418Z,95373.34
2023-02-23T11:21:52.599Z,95350.59
2023-02-23T11:24:41.280Z,95360.53
2023-02-23T11:27:27.773Z,95357.38
2023-02-23T11:30:14.006Z,95351.25
2023-02-23T11:33:10.692Z,95350.22
2023-02-23T11:36:01.196Z,95347.25
2023-02-23T11:38:47.920Z,95347.69
2023-02-23T11:41:37.181Z,95342.94
2023-02-23T11:44:23.930Z,95341.44
2023-02-23T11:47:27.933Z,95334.78
2023-02-23T11:50:39.914Z,95333.94
2023-02-23T11:53:32.781Z,95321.50
2023-02-23T11:56:24.009Z,95325.94
2023-02-23T11:59:18.383Z,95328.53
2023-02-23T12:02:15.791Z,95328.00
2023-02-23T12:05:17.158Z,95315.84
2023-02-23T12:08:27.673Z,95314.03
2023-02-23T12:11:20.692Z,95313.44
2023-02-23T12:14:26.576Z,95301.97
2023-02-23T12:17:25.847Z,95298.88
2023-02-23T12:20:16.390Z,95300.66
2023-02-23T12:23:13.944Z,95290.72
2023-02-23T12:26:13.913Z,95306.03
2023-02-23T12:29:04.719Z,95288.22
2023-02-23T12:32:05.787Z,95294.31
2023-02-23T12:34:59.361Z,95284.19
2023-02-23T12:37:50.247Z,95289.69
2023-02-23T12:40:38.619Z,95287.59
2023-02-23T12:43:36.333Z,95289.25
2023-02-23T12:46:25.699Z,95280.56
2023-02-23T12:49:19.630Z,95280.69
2023-02-23T12:52:17.546Z,95262.59
2023-02-23T12:55:04.168Z,95277.41
2023-02-23T12:58:06.919Z,95278.84
2023-02-23T13:01:04.475Z,95265.69
2023-02-23T13:04:02.797Z,95271.06
2023-02-23T13:07:00.651Z,95260.25
2023-02-23T13:10:24.223Z,95269.56
2023-02-23T13:13:11.554Z,95273.41
2023-02-23T13:16:17.603Z,95266.13
2023-02-23T13:19:09.338Z,95265.19
2023-02-23T13:22:06.828Z,95266.81
2023-02-23T13:24:54.456Z,95270.34
2023-02-23T13:27:47.008Z,95264.47
2023-02-23T13:30:33.656Z,95264.84
2023-02-23T13:33:43.322Z,95259.22
2023-02-23T13:36:32.499Z,95252.59
2023-02-23T13:40:12.820Z,95262.78
2023-02-23T13:43:38.216Z,95265.59
2023-02-23T13:46:46.064Z,95260.06
2023-02-23T13:49:39.005Z,95262.59
2023-02-23T13:52:45.272Z,95250.88
2023-02-23T13:55:48.204Z,95254.47
2023-02-23T13:58:35.816Z,95241.13
2023-02-23T14:01:23.616Z,95255.56
2023-02-23T14:04:15.771Z,95254.91
2023-02-23T14:07:16.710Z,95260.47
2023-02-23T14:10:30.135Z,95250.13
2023-02-23T14:13:16.550Z,95260.97
2023-02-23T14:16:20.158Z,95248.47
2023-02-23T14:19:34.537Z,95258.28
2023-02-23T14:22:22.185Z,95254.63
2023-02-23T14:25:33.155Z,95258.66
2023-02-23T14:28:27.717Z,95262.50
2023-02-23T14:31:14.155Z,95256.53
2023-02-23T14:34:02.038Z,95259.16
2023-02-23T14:36:49.983Z,95254.75
2023-02-23T14:39:36.379Z,95253.25
2023-02-23T14:42:27.864Z,95257.34
2023-02-23T14:45:20.942Z,95260.88
2023-02-23T14:48:13.675Z,95258.47
2023-02-23T14:51:17.242Z,95249.44
2023-02-23T14:54:11.581Z,95253.09
2023-02-23T14:57:00.167Z,95251.94
2023-02-23T14:59:56.632Z,95257.19
2023-02-23T15:03:00.652Z,95243.75
2023-02-23T15:05:57.869Z,95265.41
2023-02-23T15:08:46.525Z,95254.59
2023-02-23T15:11:32.915Z,95250.25
2023-02-23T15:14:27.504Z,95250.41
2023-02-23T15:17:17.685Z,95251.59
2023-02-23T15:20:15.980Z,95260.69
2023-02-23T15:23:05.214Z,95262.13
2023-02-23T15:25:52.864Z,95252.16
2023-02-23T15:28:40.320Z,95268.97
2023-02-23T15:31:30.828Z,95270.34
2023-02-23T15:34:21.494Z,95248.38
2023-02-23T15:37:23.772Z,95259.09
2023-02-23T15:40:17.791Z,95265.44
2023-02-23T15:43:03.924Z,95264.50
2023-02-23T15:45:52.406Z,95268.97
2023-02-23T15:48:46.680Z,95264.72
2023-02-23T15:51:32.608Z,95281.50
2023-02-23T15:54:20.510Z,95265.31
2023-02-23T15:57:08.429Z,95269.16
2023-02-23T15:59:58.087Z,95273.75
2023-02-23T16:02:45.035Z,95273.16
2023-02-23T16:05:46.586Z,95268.13
2023-02-23T16:08:34.324Z,95262.09
2023-02-23T16:11:22.278Z,95278.78
2023-02-23T16:14:15.532Z,95276.63
2023-02-23T16:17:10.841Z,95275.19
2023-02-23T16:20:18.992Z,95269.41
2023-02-23T16:23:06.060Z,95258.69
2023-02-23T16:25:55.237Z,95271.72
2023-02-23T16:28:43.720Z,95276.16
2023-02-23T16:31:49.973Z,95277.97
2023-02-23T16:34:48.991Z,95288.41
2023-02-23T16:37:50.035Z,95275.66
2023-02-23T16:40:35.807Z,95276.72
2023-02-23T16:43:21.787Z,95281.13
2023-02-23T16:46:08.383Z,95287.44
2023-02-23T16:48:54.452Z,95292.06
2023-02-23T16:51:40.655Z,95283.78
2023-02-23T16:54:27.083Z,95286.19
2023-02-23T16:57:24.969Z,95291.47
2023-02-23T17:00:14.866Z,95295.69
2023-02-23T17:03:01.468Z,95292.28
2023-02-23T17:05:48.098Z,95295.84
2023-02-23T17:08:35.724Z,95301.22
2023-02-23T17:11:23.014Z,95289.72
2023-02-23T17:14:11.269Z,95310.25
2023-02-23T17:16:57.454Z,95296.50
2023-02-23T17:19:45.546Z,95306.44
2023-02-23T17:22:33.450Z,95302.97
2023-02-23T17:25:19.736Z,95321.44
2023-02-23T17:28:05.846Z,95314.03
2023-02-23T17:30:51.995Z,95316.38
2023-02-23T17:33:39.083Z,95323.41
2023-02-23T17:36:27.594Z,95323.44
2023-02-23T17:39:16.830Z,95323.69
2023-02-23T17:42:02.740Z,95325.38
2023-02-23T17:44:48.675Z,95313.84
2023-02-23T17:47:36.051Z,95314.66
2023-02-23T17:50:22.265Z,95323.19
2023-02-23T17:53:08.103Z,95313.06
2023-02-23T17:55:57.974Z,95324.06
2023-02-23T17:58:45.737Z,95334.22
2023-02-23T18:01:31.612Z,95331.34
2023-02-23T18:04:17.552Z,95318.75
2023-02-23T18:07:03.610Z,95330.97
2023-02-23T18:09:50.150Z,95338.63
2023-02-23T18:12:36.504Z,95348.34
2023-02-23T18:15:22.220Z,95346.09
2023-02-23T18:18:08.189Z,95347.56
2023-02-23T18:20:56.389Z,95341.78
2023-02-23T18:23:42.818Z,95307.28
2023-02-23T18:26:28.996Z,95360.63
2023-02-23T18:29:15.103Z,95357.09
2023-02-23T18:32:03.024Z,95347.78
2023-02-23T18:34:49.467Z,95366.00
2023-02-23T18:37:35.792Z,95356.84
2023-02-23T18:40:23.894Z,95352.94
2023-02-23T18:43:11.160Z,95347.59
2023-02-23T18:45:57.747Z,95363.25
2023-02-23T18:48:44.486Z,95353.75
2023-02-23T18:51:30.194Z,95368.59
2023-02-23T18:54:19.071Z,95371.28
2023-02-23T18:57:06.225Z,95358.69
2023-02-23T18:59:52.673Z,95368.19
2023-02-23T19:02:38.517Z,95377.28
2023-02-23T19:05:24.861Z,95378.91
2023-02-23T19:08:13.564Z,95374.97
2023-02-23T19:10:59.902Z,95365.25
2023-02-23T19:13:46.141Z,95377.25
2023-02-23T19:16:33.001Z,95381.56
2023-02-23T19:19:18.781Z,95387.16
2023-02-23T19:22:04.674Z,95391.25
2023-02-23T19:24:50.725Z,95399.69
2023-02-23T19:27:36.735Z,95390.41
2023-02-23T19:30:22.646Z,95386.66
2023-02-23T19:33:08.954Z,95399.91
2023-02-23T19:35:54.829Z,95395.31
2023-02-23T19:38:42.545Z,95399.66
2023-02-23T19:41:28.592Z,95406.63
2023-02-23T19:44:14.668Z,95400.88
2023-02-23T19:47:00.741Z,95404.56
2023-02-23T19:49:46.633Z,95401.44
2023-02-23T19:52:32.418Z,95409.69
2023-02-23T19:55:20.335Z,95396.22
2023-02-23T19:58:06.454Z,95410.03
2023-02-23T20:00:53.255Z,95401.78
2023-02-23T20:03:46.273Z,95405.47
2023-02-23T20:06:36.274Z,95409.13
2023-02-23T20:09:22.456Z,95407.50
2023-02-23T20:12:09.218Z,95408.31
2023-02-23T20:14:55.558Z,95401.22
2023-02-23T20:17:41.683Z,95414.63
2023-02-23T20:20:29.365Z,95419.97
2023-02-23T20:23:15.697Z,95421.84
2023-02-23T20:26:10.936Z,95420.97
2023-02-23T20:28:57.904Z,95419.50
2023-02-23T20:31:52.231Z,95419.06
2023-02-23T20:34:39.425Z,95413.47
2023-02-23T20:37:25.780Z,95427.44
2023-02-23T20:40:18.838Z,95426.81
2023-02-23T20:43:05.481Z,95433.38
2023-02-23T20:45:51.588Z,95433.81
2023-02-23T20:48:37.795Z,95433.94
2023-02-23T20:51:23.824Z,95431.00
2023-02-23T20:54:11.227Z,95440.06
2023-02-23T20:57:07.490Z,95442.69
2023-02-23T20:59:53.302Z,95439.75
2023-02-23T21:02:40.993Z,95421.91
2023-02-23T21:05:29.232Z,95428.09
2023-02-23T21:08:15.647Z,95439.47
2023-02-23T21:11:05.148Z,95434.03
2023-02-23T21:13:52.130Z,95435.25
2023-02-23T21:16:41.756Z,95436.41
2023-02-23T21:19:27.820Z,95423.19
2023-02-23T21:22:16.454Z,95428.94
2023-02-23T21:25:02.428Z,95419.75
2023-02-23T21:27:49.742Z,95422.63
2023-02-23T21:30:35.971Z,95421.91
2023-02-23T21:33:22.059Z,95420.00
2023-02-23T21:36:18.497Z,95427.00
2023-02-23T21:39:10.544Z,95428.59
2023-02-23T21:41:58.542Z,95435.59
2023-02-23T21:44:45.810Z,95436.81
2023-02-23T21:47:40.724Z,95437.81
2023-02-23T21:50:26.839Z,95425.66
2023-02-23T21:53:13.256Z,95428.72
2023-02-23T21:55:59.650Z,95428.91
2023-02-23T21:58:50.757Z,95434.63
2023-02-23T22:01:38.975Z,95429.84
2023-02-23T22:04:24.858Z,95421.91
2023-02-23T22:07:10.655Z,95419.84
2023-02-23T22:09:56.523Z,95434.03
2023-02-23T22:12:42.391Z,95423.66
2023-02-23T22:15:28.340Z,95422.00
2023-02-23T22:18:14.368Z,95426.28
2023-02-23T22:21:01.680Z,95425.41
2023-02-23T22:23:48.022Z,95409.88
2023-02-23T22:26:36.096Z,95424.78
2023-02-23T22:29:23.698Z,95423.31
2023-02-23T22:32:10.570Z,95431.50
2023-02-23T22:34:56.877Z,95430.88
2023-02-23T22:37:42.692Z,95430.41
2023-02-23T22:40:28.847Z,95422.13
2023-02-23T22:43:16.282Z,95426.84
2023-02-23T22:46:02.397Z,95422.41
2023-02-23T22:48:48.716Z,95409.97
2023-02-23T22:51:34.847Z,95406.19
2023-02-23T22:54:24.024Z,95423.31
2023-02-23T22:57:10.125Z,95429.22
2023-02-23T23:00:00.105Z,95432.28
2023-02-23T23:02:46.111Z,95426.75
2023-02-23T23:05:32.861Z,95412.38
2023-02-23T23:08:18.815Z,95427.50
2023-02-23T23:11:09.981Z,95431.34
2023-02-23T23:14:02.152Z,95421.22
2023-02-23T23:16:49.492Z,95427.75
2023-02-23T23:19:39.140Z,95423.41
2023-02-23T23:22:25.382Z,95414.00
2023-02-23T23:25:14.887Z,95430.78
2023-02-23T23:28:00.680Z,95432.16
2023-02-23T23:30:47.355Z,95427.00
2023-02-23T23:33:34.577Z,95434.19
2023-02-23T23:36:23.683Z,95432.22
2023-02-23T23:39:12.092Z,95433.63
2023-02-23T23:41:58.050Z,95437.66
2023-02-23T23:44:45.276Z,95437.66
2023-02-23T23:47:31.093Z,95433.88
2023-02-23T23:50:17.503Z,95436.09
2023-02-23T23:53:04.592Z,95448.41
2023-02-23T23:55:50.468Z,95443.63
2023-02-23T23:58:37.303Z,95446.47
